Time;durP1;ratioP1;P1;durP2;ratioP2;P2;SDS_P1;SDS_P2;PMS_P1;PMS_P2;Temp;Humidity;BMP_temperature;BMP_pressure;BME280_temperature;BME280_humidity;BME280_pressure;Samples;Min_cycle;Max_cycle;Signal;HPM_P1;HPM_P2
2023/03/22 00:02:25;;;;;;;18.20;10.40;;;9.40;99.90;;;;;;5021789;28;21578;-83
2023/03/22 00:04:51;;;;;;;19.63;11.80;;;9.40;99.90;;;;;;5023986;28;20391;-83
2023/03/22 00:07:17;;;;;;;16.10;11.55;;;9.40;99.90;;;;;;5023912;28;20072;-83
2023/03/22 00:09:43;;;;;;;22.00;12.20;;;9.40;99.90;;;;;;5022196;28;20471;-83
2023/03/22 00:12:08;;;;;;;19.85;10.10;;;9.40;99.90;;;;;;5025470;28;20031;-83
2023/03/22 00:14:35;;;;;;;24.23;12.90;;;9.40;99.90;;;;;;5023012;28;20014;-83
2023/03/22 00:17:00;;;;;;;18.80;12.52;;;9.50;99.90;;;;;;5005251;28;20030;-83
2023/03/22 00:19:28;;;;;;;19.67;12.52;;;9.50;99.90;;;;;;5024035;28;20040;-82
2023/03/22 00:21:54;;;;;;;23.90;12.70;;;9.60;99.90;;;;;;5023077;28;20045;-83
2023/03/22 00:24:20;;;;;;;22.13;11.70;;;9.60;99.90;;;;;;5017822;28;20029;-82
2023/03/22 00:26:46;;;;;;;21.50;12.88;;;9.60;99.90;;;;;;5021751;28;20427;-82
2023/03/22 00:29:12;;;;;;;22.45;11.60;;;9.70;99.90;;;;;;5023796;28;20394;-83
2023/03/22 00:31:38;;;;;;;23.73;14.30;;;9.70;99.90;;;;;;5021884;28;20041;-85
2023/03/22 00:34:03;;;;;;;26.45;13.38;;;9.70;99.90;;;;;;5021855;28;20037;-83
2023/03/22 00:36:29;;;;;;;29.05;13.52;;;9.70;99.90;;;;;;5022670;28;20466;-82
2023/03/22 00:38:55;;;;;;;22.80;12.88;;;9.70;99.90;;;;;;5022891;28;20407;-81
2023/03/22 00:41:23;;;;;;;31.83;16.42;;;9.70;99.90;;;;;;5035090;28;20053;-83
2023/03/22 00:43:50;;;;;;;27.10;14.38;;;9.60;99.90;;;;;;5033121;28;20025;-82
2023/03/22 00:46:18;;;;;;;26.50;15.02;;;9.60;99.90;;;;;;5039444;28;20166;-85
2023/03/22 00:48:44;;;;;;;23.50;14.82;;;9.60;99.90;;;;;;5041808;28;20029;-83
2023/03/22 00:51:12;;;;;;;30.13;15.73;;;9.60;99.90;;;;;;5043369;28;20356;-87
2023/03/22 00:53:38;;;;;;;29.02;15.13;;;9.50;99.90;;;;;;5040855;28;20428;-82
2023/03/22 00:56:05;;;;;;;26.58;16.17;;;9.50;99.90;;;;;;5026049;28;20123;-82
2023/03/22 00:58:31;;;;;;;25.00;15.35;;;9.40;99.90;;;;;;5042696;28;20029;-83
2023/03/22 01:00:56;;;;;;;28.02;17.02;;;9.40;99.90;;;;;;5042117;28;20032;-81
2023/03/22 01:03:23;;;;;;;29.98;16.23;;;9.40;99.90;;;;;;5024422;28;20040;-85
2023/03/22 01:05:50;;;;;;;30.85;16.80;;;9.40;99.90;;;;;;5035880;28;20025;-83
2023/03/22 01:08:16;;;;;;;25.73;15.25;;;9.40;99.90;;;;;;5040958;28;20033;-86
2023/03/22 01:10:43;;;;;;;29.90;16.60;;;9.40;99.90;;;;;;5044536;28;20919;-84
2023/03/22 01:13:10;;;;;;;24.60;14.57;;;9.40;99.90;;;;;;5047108;28;20532;-81
2023/03/22 01:15:37;;;;;;;32.72;15.98;;;9.30;99.90;;;;;;5044017;28;20037;-83
2023/03/22 01:18:03;;;;;;;29.50;16.27;;;9.30;99.90;;;;;;5028108;28;20352;-82
2023/03/22 01:20:29;;;;;;;28.30;16.40;;;9.30;99.90;;;;;;5047476;28;20128;-84
2023/03/22 01:22:54;;;;;;;30.00;16.60;;;9.30;99.90;;;;;;5042926;28;20508;-82
2023/03/22 01:25:20;;;;;;;27.27;15.80;;;9.30;99.90;;;;;;5046868;28;20300;-83
2023/03/22 01:27:45;;;;;;;25.70;16.25;;;9.30;99.90;;;;;;5041073;28;20028;-82
2023/03/22 01:30:13;;;;;;;29.98;16.77;;;9.30;99.90;;;;;;5047422;28;20034;-86
2023/03/22 01:32:39;;;;;;;25.45;15.80;;;9.30;99.90;;;;;;5038006;28;20037;-82
2023/03/22 01:35:05;;;;;;;31.15;17.27;;;9.20;99.90;;;;;;5047084;28;20078;-81
2023/03/22 01:37:32;;;;;;;30.23;16.40;;;9.20;99.90;;;;;;5035543;28;20227;-86
2023/03/22 01:39:58;;;;;;;27.38;16.85;;;9.20;99.90;;;;;;5036751;28;20128;-84
2023/03/22 01:42:24;;;;;;;32.92;17.90;;;9.20;99.90;;;;;;5027792;28;20049;-80
2023/03/22 01:45:12;;;;;;;28.13;16.88;;;9.20;99.90;;;;;;5024135;28;20037;-86
2023/03/22 01:48:09;;;;;;;29.38;17.83;;;9.20;99.90;;;;;;5022134;28;20036;-84
2023/03/22 01:50:37;;;;;;;28.80;17.77;;;9.20;99.90;;;;;;4985651;28;20069;-81
2023/03/22 01:53:05;;;;;;;29.55;18.63;;;9.20;99.90;;;;;;5026248;28;20475;-84
2023/03/22 01:55:32;;;;;;;39.97;18.65;;;9.20;99.90;;;;;;5026616;28;20055;-80
2023/03/22 01:57:58;;;;;;;29.63;17.48;;;9.10;99.90;;;;;;5025853;28;20482;-83
2023/03/22 02:00:24;;;;;;;30.75;17.45;;;9.20;99.90;;;;;;5023253;28;20041;-81
2023/03/22 02:02:50;;;;;;;31.25;16.98;;;9.10;99.90;;;;;;5025420;28;20041;-83
2023/03/22 02:05:17;;;;;;;34.38;17.25;;;9.10;99.90;;;;;;5027443;28;20065;-84
2023/03/22 02:07:44;;;;;;;32.40;16.80;;;9.20;99.90;;;;;;5026688;28;20036;-85
2023/03/22 02:10:16;;;;;;;37.45;18.05;;;9.20;99.90;;;;;;5024686;28;20112;-84
2023/03/22 02:12:51;;;;;;;32.83;18.42;;;9.20;99.90;;;;;;5027119;28;20037;-87
2023/03/22 02:15:31;;;;;;;32.80;18.83;;;9.10;99.90;;;;;;5016147;28;20068;-84
2023/03/22 02:18:34;;;;;;;32.13;18.30;;;9.10;99.90;;;;;;5019497;28;20029;-83
2023/03/22 02:21:20;;;;;;;34.58;17.25;;;9.10;99.90;;;;;;5022636;28;20037;-84
2023/03/22 02:24:04;;;;;;;30.92;18.50;;;9.10;99.90;;;;;;5024989;28;20372;-84
2023/03/22 02:26:58;;;;;;;36.88;18.45;;;9.10;99.90;;;;;;5006703;28;20034;-83
2023/03/22 02:30:08;;;;;;;29.92;17.88;;;9.10;99.90;;;;;;5025006;28;20056;-83
2023/03/22 02:32:51;;;;;;;29.73;18.77;;;9.00;99.90;;;;;;5016943;28;20118;-83
2023/03/22 02:35:20;;;;;;;35.55;19.33;;;9.00;99.90;;;;;;5009235;28;21455;-85
2023/03/22 02:38:02;;;;;;;34.10;19.23;;;9.00;99.90;;;;;;5025380;28;20072;-82
2023/03/22 02:40:43;;;;;;;30.98;18.13;;;9.10;99.90;;;;;;5036436;28;20076;-84
2023/03/22 02:43:08;;;;;;;36.60;19.15;;;9.00;99.90;;;;;;5041481;28;20443;-80
2023/03/22 02:45:54;;;;;;;33.28;18.48;;;9.00;99.90;;;;;;5046957;28;20104;-84
2023/03/22 02:48:42;;;;;;;31.13;18.77;;;9.00;99.90;;;;;;5026486;28;20454;-85
2023/03/22 02:51:14;;;;;;;32.60;20.77;;;9.00;99.90;;;;;;5042282;28;20029;-83
2023/03/22 02:53:44;;;;;;;33.10;19.60;;;9.00;99.90;;;;;;5045203;28;20053;-85
2023/03/22 02:56:18;;;;;;;33.28;21.02;;;9.00;99.90;;;;;;5045442;28;20429;-83
2023/03/22 02:58:47;;;;;;;33.80;20.13;;;9.00;99.90;;;;;;5045325;28;20021;-85
2023/03/22 03:01:35;;;;;;;35.60;20.33;;;9.00;99.90;;;;;;5042297;28;20052;-81
2023/03/22 03:04:06;;;;;;;31.58;20.25;;;9.00;99.90;;;;;;5044302;28;20044;-83
2023/03/22 03:06:44;;;;;;;35.65;19.60;;;9.00;99.90;;;;;;5045097;28;20025;-83
2023/03/22 03:09:16;;;;;;;42.28;21.35;;;9.00;99.90;;;;;;5043088;28;20025;-82
2023/03/22 03:11:48;;;;;;;35.67;19.55;;;9.00;99.90;;;;;;5044526;28;20033;-83
2023/03/22 03:14:40;;;;;;;38.15;21.83;;;8.90;99.90;;;;;;5043027;28;20018;-84
2023/03/22 03:17:45;;;;;;;34.60;20.20;;;8.90;99.90;;;;;;5039821;28;20044;-84
2023/03/22 03:20:38;;;;;;;41.47;19.73;;;8.90;99.90;;;;;;5040802;28;20053;-83
2023/03/22 03:23:19;;;;;;;32.40;20.02;;;8.90;99.90;;;;;;5043849;28;20140;-82
2023/03/22 03:26:00;;;;;;;38.67;20.95;;;8.90;99.90;;;;;;5047063;28;20025;-82
2023/03/22 03:28:50;;;;;;;36.55;19.30;;;8.90;99.90;;;;;;5043446;28;20041;-83
2023/03/22 03:31:19;;;;;;;32.38;19.52;;;8.90;99.90;;;;;;5039159;28;20033;-84
2023/03/22 03:33:59;;;;;;;28.63;20.02;;;8.90;99.90;;;;;;5044013;28;20367;-81
2023/03/22 03:36:26;;;;;;;31.25;19.35;;;8.90;99.90;;;;;;5042271;28;20104;-82
2023/03/22 03:38:55;;;;;;;34.88;20.00;;;8.90;99.90;;;;;;5043583;28;20025;-83
2023/03/22 03:41:25;;;;;;;40.60;19.70;;;8.90;99.90;;;;;;5040096;28;20041;-83
2023/03/22 03:43:53;;;;;;;32.97;18.08;;;8.90;99.90;;;;;;5044286;28;20424;-82
2023/03/22 03:46:19;;;;;;;29.50;18.83;;;8.90;99.90;;;;;;5038332;28;20036;-82
2023/03/22 03:48:49;;;;;;;32.80;18.60;;;8.90;99.90;;;;;;5043231;28;20025;-82
2023/03/22 03:51:15;;;;;;;29.17;18.98;;;9.00;99.90;;;;;;5043426;28;20032;-82
2023/03/22 03:53:41;;;;;;;34.38;20.50;;;8.90;99.90;;;;;;5042288;28;20032;-83
2023/03/22 03:56:07;;;;;;;36.78;19.70;;;9.00;99.90;;;;;;5039104;28;20025;-84
2023/03/22 03:58:32;;;;;;;34.08;18.85;;;8.90;99.90;;;;;;5025150;28;20466;-81
2023/03/22 04:00:58;;;;;;;30.10;19.00;;;8.90;99.90;;;;;;5037755;28;20040;-83
2023/03/22 04:03:24;;;;;;;35.10;19.08;;;8.90;99.90;;;;;;5042655;28;20033;-82
2023/03/22 04:05:50;;;;;;;30.85;19.13;;;8.90;99.90;;;;;;5044725;28;20499;-83
2023/03/22 04:08:19;;;;;;;37.30;20.05;;;8.90;99.90;;;;;;5039039;28;20353;-86
2023/03/22 04:10:49;;;;;;;35.35;20.02;;;8.90;99.90;;;;;;5043639;28;20017;-82
2023/03/22 04:13:15;;;;;;;37.28;19.58;;;8.90;99.90;;;;;;5042044;28;20115;-82
2023/03/22 04:15:40;;;;;;;35.58;19.65;;;8.90;99.90;;;;;;5045423;28;20115;-84
2023/03/22 04:18:08;;;;;;;31.30;18.17;;;8.90;99.90;;;;;;5046528;28;20032;-83
2023/03/22 04:20:34;;;;;;;34.42;19.55;;;9.00;99.90;;;;;;5042811;28;20481;-81
2023/03/22 04:22:59;;;;;;;30.33;18.42;;;8.90;99.90;;;;;;5046370;28;20044;-82
2023/03/22 04:25:29;;;;;;;32.58;17.98;;;8.90;99.90;;;;;;5050115;28;20555;-82
2023/03/22 04:27:55;;;;;;;32.63;18.08;;;8.90;99.90;;;;;;5046605;28;20029;-84
2023/03/22 04:30:23;;;;;;;25.35;17.13;;;8.90;99.90;;;;;;5045419;28;20097;-84
2023/03/22 04:32:49;;;;;;;32.40;19.35;;;8.90;99.90;;;;;;5045176;28;20029;-83
2023/03/22 04:35:15;;;;;;;33.97;17.27;;;8.90;99.90;;;;;;5043861;28;20047;-82
2023/03/22 04:37:41;;;;;;;29.02;18.23;;;8.90;99.90;;;;;;5049741;28;20032;-82
2023/03/22 04:40:09;;;;;;;31.80;17.73;;;8.90;99.90;;;;;;5046343;28;20045;-83
2023/03/22 04:42:34;;;;;;;33.08;19.17;;;8.80;99.90;;;;;;5040416;28;20131;-83
2023/03/22 04:45:02;;;;;;;32.50;18.17;;;8.90;99.90;;;;;;5041830;28;20568;-85
2023/03/22 04:47:28;;;;;;;31.88;18.98;;;8.80;99.90;;;;;;5046545;28;20398;-83
2023/03/22 04:49:54;;;;;;;38.55;19.52;;;8.90;99.90;;;;;;5048280;28;20048;-81
2023/03/22 04:52:19;;;;;;;28.70;17.55;;;8.80;99.90;;;;;;5043411;28;20017;-83
2023/03/22 04:54:45;;;;;;;29.17;17.65;;;8.80;99.90;;;;;;5047776;28;20030;-86
2023/03/22 04:57:11;;;;;;;29.55;16.98;;;8.90;99.90;;;;;;5039859;28;20025;-82
2023/03/22 04:59:36;;;;;;;32.63;18.90;;;8.80;99.90;;;;;;5050152;28;20389;-83
2023/03/22 05:02:02;;;;;;;35.85;19.13;;;8.80;99.90;;;;;;5047970;28;20041;-82
2023/03/22 05:04:28;;;;;;;39.83;18.67;;;8.80;99.90;;;;;;5023951;28;20491;-83
2023/03/22 05:06:53;;;;;;;32.50;18.33;;;8.80;99.90;;;;;;5046921;28;20367;-82
2023/03/22 05:09:19;;;;;;;31.90;19.38;;;8.80;99.90;;;;;;5047821;28;20035;-86
2023/03/22 05:11:45;;;;;;;35.58;19.75;;;8.80;99.90;;;;;;5043190;28;20516;-83
2023/03/22 05:14:11;;;;;;;35.30;20.73;;;8.80;99.90;;;;;;5050543;28;20035;-81
2023/03/22 05:16:39;;;;;;;41.10;20.45;;;8.70;99.90;;;;;;5048142;28;20039;-83
2023/03/22 05:19:12;;;;;;;35.65;19.25;;;8.80;99.90;;;;;;5047380;28;20029;-83
2023/03/22 05:21:42;;;;;;;32.50;18.45;;;8.70;99.90;;;;;;5046812;28;20298;-81
2023/03/22 05:24:09;;;;;;;30.08;18.52;;;8.70;99.90;;;;;;5046163;28;20017;-81
2023/03/22 05:26:41;;;;;;;34.45;19.75;;;8.70;99.90;;;;;;5046202;28;20543;-84
2023/03/22 05:29:09;;;;;;;34.92;20.05;;;8.70;99.90;;;;;;5042332;28;20091;-83
2023/03/22 05:31:35;;;;;;;26.55;17.85;;;8.60;99.90;;;;;;5041492;28;20120;-83
2023/03/22 05:34:01;;;;;;;31.23;18.27;;;8.60;99.90;;;;;;5049089;28;20184;-82
2023/03/22 05:36:28;;;;;;;39.83;19.23;;;8.60;99.90;;;;;;5047773;28;20442;-84
2023/03/22 05:38:55;;;;;;;28.13;18.45;;;8.60;99.90;;;;;;5043090;28;20208;-84
2023/03/22 05:41:21;;;;;;;34.88;19.50;;;8.60;99.90;;;;;;5046732;28;20514;-82
2023/03/22 05:43:47;;;;;;;41.47;21.02;;;8.60;99.90;;;;;;5043691;28;20028;-82
2023/03/22 05:46:12;;;;;;;40.25;20.48;;;8.60;99.90;;;;;;5045929;28;20056;-82
2023/03/22 05:48:39;;;;;;;35.83;20.77;;;8.70;99.90;;;;;;5043456;28;20044;-82
2023/03/22 05:51:12;;;;;;;36.90;19.90;;;8.70;99.90;;;;;;5042260;28;20020;-81
2023/03/22 05:53:38;;;;;;;37.95;21.50;;;8.70;99.90;;;;;;5043552;28;20032;-82
2023/03/22 05:56:04;;;;;;;33.78;21.10;;;8.70;99.90;;;;;;5045779;28;20029;-81
2023/03/22 05:58:31;;;;;;;40.47;19.95;;;8.70;99.90;;;;;;5041989;28;20478;-82
2023/03/22 06:01:00;;;;;;;39.28;22.63;;;8.70;99.90;;;;;;5046769;28;20505;-82
2023/03/22 06:03:27;;;;;;;41.95;22.02;;;8.70;99.90;;;;;;5030800;28;20049;-81
2023/03/22 06:05:53;;;;;;;39.33;20.13;;;8.70;99.90;;;;;;5031792;28;20035;-84
2023/03/22 06:08:20;;;;;;;39.83;21.90;;;8.70;99.90;;;;;;5031528;28;20045;-81
2023/03/22 06:10:51;;;;;;;39.58;22.38;;;8.70;99.90;;;;;;5015213;28;20025;-85
2023/03/22 06:13:19;;;;;;;34.47;21.30;;;8.80;99.90;;;;;;5041171;28;20035;-81
2023/03/22 06:15:45;;;;;;;42.13;22.58;;;8.80;99.90;;;;;;5045974;28;20036;-85
2023/03/22 06:18:11;;;;;;;35.63;22.33;;;8.90;99.90;;;;;;5043700;28;20037;-82
2023/03/22 06:20:38;;;;;;;41.42;22.75;;;8.90;99.90;;;;;;5027363;28;20454;-82
2023/03/22 06:23:04;;;;;;;36.40;21.58;;;8.90;99.90;;;;;;5036992;28;20048;-83
2023/03/22 06:25:30;;;;;;;43.60;21.77;;;9.00;99.90;;;;;;5046589;28;20047;-86
2023/03/22 06:27:55;;;;;;;36.45;23.00;;;9.00;99.90;;;;;;5029387;28;20542;-81
2023/03/22 06:30:21;;;;;;;37.80;21.83;;;9.00;99.90;;;;;;5041533;28;20080;-87
2023/03/22 06:32:47;;;;;;;39.70;21.58;;;9.10;99.90;;;;;;5048243;28;20124;-83
2023/03/22 06:35:13;;;;;;;32.97;21.50;;;9.10;99.90;;;;;;5045422;28;20560;-82
2023/03/22 06:37:38;;;;;;;32.75;20.73;;;9.20;99.90;;;;;;5030305;28;20025;-83
2023/03/22 06:40:04;;;;;;;37.05;21.88;;;9.20;99.90;;;;;;5043585;28;20049;-85
2023/03/22 06:42:30;;;;;;;41.00;23.90;;;9.30;99.90;;;;;;5045253;28;20124;-89
2023/03/22 06:44:57;;;;;;;41.67;22.90;;;9.30;99.90;;;;;;5039334;28;20121;-81
2023/03/22 06:47:23;;;;;;;38.38;22.77;;;9.40;99.90;;;;;;5044673;28;20086;-81
2023/03/22 06:49:49;;;;;;;48.75;24.83;;;9.30;99.90;;;;;;5036734;28;20057;-80
2023/03/22 06:52:15;;;;;;;39.97;22.92;;;9.30;99.90;;;;;;5031530;28;20479;-83
2023/03/22 06:54:40;;;;;;;34.28;21.55;;;9.30;99.90;;;;;;5031924;28;20440;-81
2023/03/22 06:57:06;;;;;;;36.08;22.75;;;9.30;99.90;;;;;;5029532;28;20455;-81
2023/03/22 06:59:32;;;;;;;37.20;22.88;;;9.30;99.90;;;;;;5044579;28;20040;-83
2023/03/22 07:01:58;;;;;;;38.22;21.65;;;9.40;99.90;;;;;;5023141;28;20095;-80
2023/03/22 07:04:24;;;;;;;38.78;24.33;;;9.40;99.90;;;;;;5044277;28;20040;-82
2023/03/22 07:06:50;;;;;;;38.70;22.77;;;9.40;99.90;;;;;;5040407;28;20076;-80
2023/03/22 07:09:16;;;;;;;39.28;24.35;;;9.50;99.90;;;;;;5038892;28;20053;-88
2023/03/22 07:11:42;;;;;;;36.90;22.13;;;9.50;99.90;;;;;;5048293;28;20072;-81
2023/03/22 07:14:07;;;;;;;46.40;24.38;;;9.60;99.90;;;;;;5047362;28;20080;-80
2023/03/22 07:16:33;;;;;;;36.97;21.73;;;9.60;99.90;;;;;;5042588;28;20445;-80
2023/03/22 07:18:58;;;;;;;39.58;23.05;;;9.60;99.90;;;;;;5038940;28;20111;-83
2023/03/22 07:21:24;;;;;;;48.72;22.42;;;9.70;99.90;;;;;;5047818;28;20079;-81
2023/03/22 07:23:49;;;;;;;37.90;22.73;;;9.80;99.90;;;;;;5047495;28;20340;-81
2023/03/22 07:26:15;;;;;;;47.78;22.15;;;9.80;99.90;;;;;;5027951;28;20087;-82
2023/03/22 07:28:43;;;;;;;35.45;21.23;;;9.90;99.90;;;;;;5045159;28;20083;-81
2023/03/22 07:31:10;;;;;;;34.30;22.45;;;9.90;99.90;;;;;;5043572;28;20028;-86
2023/03/22 07:33:39;;;;;;;32.72;20.90;;;10.00;99.90;;;;;;5044218;28;20141;-85
2023/03/22 07:36:06;;;;;;;40.53;21.55;;;10.00;99.90;;;;;;5040265;28;20036;-83
2023/03/22 07:38:33;;;;;;;34.22;21.98;;;10.10;99.90;;;;;;5044583;28;20044;-83
2023/03/22 07:40:59;;;;;;;45.83;23.67;;;10.10;99.90;;;;;;5043972;28;20056;-80
2023/03/22 07:43:24;;;;;;;41.03;23.45;;;10.10;99.90;;;;;;5045437;28;20429;-85
2023/03/22 07:45:51;;;;;;;42.67;23.60;;;10.10;99.90;;;;;;5043772;28;20029;-83
2023/03/22 07:48:21;;;;;;;37.45;23.42;;;10.10;99.90;;;;;;5043584;28;20028;-86
2023/03/22 07:50:48;;;;;;;40.60;22.40;;;10.20;99.90;;;;;;5041117;28;20108;-84
2023/03/22 07:53:14;;;;;;;37.13;23.05;;;10.20;99.90;;;;;;5044658;28;20033;-82
2023/03/22 07:55:42;;;;;;;34.83;21.33;;;10.20;99.90;;;;;;5043248;28;20078;-84
2023/03/22 07:58:08;;;;;;;41.20;21.98;;;10.20;99.90;;;;;;5044486;28;20060;-80
2023/03/22 08:00:34;;;;;;;32.70;20.27;;;10.30;99.90;;;;;;5047015;28;20470;-84
2023/03/22 08:03:00;;;;;;;30.90;19.88;;;10.30;99.90;;;;;;5037778;28;20037;-81
2023/03/22 08:05:26;;;;;;;37.05;20.70;;;10.30;99.90;;;;;;5020622;28;20037;-82
2023/03/22 08:07:53;;;;;;;44.70;20.83;;;10.50;99.90;;;;;;5039526;28;20052;-83
2023/03/22 08:10:19;;;;;;;39.33;19.90;;;10.60;99.90;;;;;;5039426;28;20033;-83
2023/03/22 08:12:45;;;;;;;28.23;20.15;;;10.60;99.90;;;;;;5044908;28;20036;-81
2023/03/22 08:15:10;;;;;;;30.27;20.17;;;10.60;99.90;;;;;;5045731;28;20040;-83
2023/03/22 08:17:36;;;;;;;29.42;20.77;;;10.70;99.90;;;;;;5042562;28;20078;-82
2023/03/22 08:20:07;;;;;;;45.72;20.20;;;10.70;99.90;;;;;;5044592;28;20035;-83
2023/03/22 08:22:34;;;;;;;26.98;18.13;;;10.70;99.90;;;;;;5041575;28;20127;-86
2023/03/22 08:25:00;;;;;;;29.73;17.90;;;10.80;99.90;;;;;;5044700;28;20482;-83
2023/03/22 08:27:26;;;;;;;28.17;16.75;;;10.80;99.90;;;;;;5039400;28;20026;-85
2023/03/22 08:29:51;;;;;;;25.38;16.00;;;10.80;99.90;;;;;;5038328;28;20029;-84
2023/03/22 08:32:18;;;;;;;23.27;15.38;;;10.80;99.90;;;;;;5039333;28;20033;-84
2023/03/22 08:34:44;;;;;;;24.60;17.02;;;10.80;99.90;;;;;;5041994;28;20033;-84
2023/03/22 08:37:11;;;;;;;21.63;13.48;;;10.80;99.90;;;;;;5046741;28;20053;-84
2023/03/22 08:39:37;;;;;;;25.00;16.15;;;10.80;99.90;;;;;;5045245;28;20104;-82
2023/03/22 08:42:03;;;;;;;26.38;14.20;;;10.80;99.90;;;;;;5041640;28;20120;-84
2023/03/22 08:44:29;;;;;;;27.15;15.60;;;10.90;99.90;;;;;;5037131;28;20033;-84
2023/03/22 08:46:54;;;;;;;28.90;14.38;;;10.90;99.90;;;;;;5050651;28;20029;-85
2023/03/22 08:49:20;;;;;;;32.70;12.95;;;10.90;99.90;;;;;;5031810;28;20036;-83
2023/03/22 08:51:46;;;;;;;21.48;12.45;;;11.00;99.90;;;;;;5035693;28;20040;-84
2023/03/22 08:54:12;;;;;;;20.95;12.90;;;11.10;99.90;;;;;;5039957;28;20030;-82
2023/03/22 08:56:38;;;;;;;19.10;11.15;;;11.20;99.90;;;;;;5035122;28;20390;-84
2023/03/22 08:59:05;;;;;;;19.20;10.70;;;11.40;99.90;;;;;;5044765;28;20028;-82
2023/03/22 09:01:31;;;;;;;20.15;9.45;;;11.60;99.90;;;;;;5026243;28;20501;-84
2023/03/22 09:03:56;;;;;;;15.55;9.50;;;11.70;99.90;;;;;;5042933;28;20114;-80
2023/03/22 09:06:24;;;;;;;22.10;9.90;;;11.70;99.90;;;;;;5040085;28;20029;-81
2023/03/22 09:08:53;;;;;;;23.98;9.40;;;11.80;99.90;;;;;;5040488;28;20025;-82
2023/03/22 09:11:20;;;;;;;16.88;10.07;;;11.90;99.90;;;;;;5042346;28;20413;-82
2023/03/22 09:13:46;;;;;;;22.98;8.60;;;11.90;99.90;;;;;;5044466;28;20110;-82
2023/03/22 09:16:12;;;;;;;15.02;8.43;;;12.00;99.90;;;;;;5050201;28;20022;-80
2023/03/22 09:18:38;;;;;;;20.60;9.13;;;12.00;99.90;;;;;;5045442;28;20029;-84
2023/03/22 09:21:06;;;;;;;23.45;8.70;;;12.20;99.90;;;;;;5040029;28;20034;-83
2023/03/22 09:23:33;;;;;;;16.90;8.73;;;12.30;99.90;;;;;;5044414;28;20485;-83
2023/03/22 09:26:03;;;;;;;16.63;8.43;;;12.50;99.90;;;;;;5050353;28;20408;-84
2023/03/22 09:28:40;;;;;;;16.58;8.23;;;12.40;99.90;;;;;;5039965;28;20383;-85
2023/03/22 09:31:08;;;;;;;17.00;8.48;;;12.50;99.90;;;;;;5041269;28;20371;-82
2023/03/22 09:33:35;;;;;;;18.90;8.95;;;12.50;99.90;;;;;;5048548;28;20025;-84
2023/03/22 09:36:00;;;;;;;18.50;7.93;;;12.60;99.90;;;;;;5030165;28;20075;-83
2023/03/22 09:38:26;;;;;;;12.25;7.55;;;12.60;99.90;;;;;;5041808;28;20029;-83
2023/03/22 09:41:01;;;;;;;12.30;7.18;;;12.60;99.90;;;;;;5036733;28;20056;-83
2023/03/22 09:43:39;;;;;;;12.93;6.97;;;12.60;99.90;;;;;;5047614;28;20093;-82
2023/03/22 09:46:12;;;;;;;21.73;7.35;;;12.60;99.90;;;;;;5037541;28;20494;-88
2023/03/22 09:48:41;;;;;;;15.20;5.43;;;12.60;99.90;;;;;;5041464;28;20376;-83
2023/03/22 09:51:21;;;;;;;10.32;6.63;;;12.50;99.90;;;;;;5043593;28;20028;-83
2023/03/22 09:53:46;;;;;;;17.25;7.65;;;12.50;99.90;;;;;;5042977;28;20029;-81
2023/03/22 09:56:27;;;;;;;11.63;6.57;;;12.60;99.90;;;;;;5037279;28;20099;-82
2023/03/22 09:59:16;;;;;;;12.02;6.28;;;12.60;99.90;;;;;;5041785;28;20109;-82
2023/03/22 10:02:06;;;;;;;14.05;6.68;;;12.70;99.90;;;;;;5026325;28;20037;-83
2023/03/22 10:04:56;;;;;;;9.27;5.28;;;12.70;99.90;;;;;;5045366;28;20036;-83
2023/03/22 10:07:57;;;;;;;9.68;5.90;;;12.70;99.90;;;;;;5040055;28;20537;-83
2023/03/22 10:10:24;;;;;;;11.30;5.57;;;12.70;99.90;;;;;;5040415;28;20084;-84
2023/03/22 10:12:59;;;;;;;12.35;5.15;;;12.70;99.90;;;;;;5040651;28;20120;-82
2023/03/22 10:15:38;;;;;;;11.38;6.78;;;12.70;99.90;;;;;;5040285;28;20044;-82
2023/03/22 10:18:07;;;;;;;15.20;5.50;;;12.70;99.90;;;;;;5047107;28;20033;-81
2023/03/22 10:20:38;;;;;;;16.35;5.00;;;12.80;99.90;;;;;;5046771;28;20025;-81
2023/03/22 10:23:09;;;;;;;8.05;4.03;;;12.90;99.90;;;;;;5038319;28;20051;-80
2023/03/22 10:25:38;;;;;;;12.70;5.63;;;12.90;99.90;;;;;;5042460;28;20431;-80
2023/03/22 10:28:23;;;;;;;12.50;4.45;;;12.90;99.90;;;;;;5039800;28;20466;-82
2023/03/22 10:30:54;;;;;;;10.30;4.15;;;12.90;99.90;;;;;;5041456;28;20059;-84
2023/03/22 10:33:29;;;;;;;13.90;4.30;;;12.90;99.90;;;;;;5036329;28;20018;-82
2023/03/22 10:35:55;;;;;;;11.82;5.20;;;12.90;99.90;;;;;;5040302;28;20105;-82
2023/03/22 10:38:25;;;;;;;13.90;4.35;;;12.90;99.90;;;;;;5041871;28;20033;-82
2023/03/22 10:40:54;;;;;;;8.88;3.78;;;13.00;99.90;;;;;;5045645;28;20049;-81
2023/03/22 10:43:21;;;;;;;7.85;4.28;;;13.00;99.90;;;;;;5039433;28;20091;-81
2023/03/22 10:45:49;;;;;;;13.20;4.63;;;13.10;99.90;;;;;;5036412;28;20089;-81
2023/03/22 10:48:32;;;;;;;12.10;4.80;;;13.10;99.90;;;;;;5046812;28;20082;-80
2023/03/22 10:50:59;;;;;;;12.13;4.43;;;13.10;99.90;;;;;;5049409;28;20041;-81
2023/03/22 10:53:29;;;;;;;10.32;4.93;;;13.00;99.90;;;;;;5047753;28;20054;-82
2023/03/22 10:55:55;;;;;;;8.85;3.80;;;13.00;99.90;;;;;;5047222;28;20083;-82
2023/03/22 10:58:22;;;;;;;10.35;4.10;;;13.10;99.90;;;;;;5044475;28;20033;-82
2023/03/22 11:00:54;;;;;;;11.25;3.30;;;13.10;99.90;;;;;;5044563;28;20064;-83
2023/03/22 11:03:33;;;;;;;7.07;3.03;;;13.30;99.90;;;;;;5040448;28;20086;-82
2023/03/22 11:06:08;;;;;;;10.05;3.20;;;13.40;99.90;;;;;;5031613;28;20490;-80
2023/03/22 11:08:58;;;;;;;7.65;2.70;;;13.50;99.90;;;;;;5039713;28;20044;-84
2023/03/22 11:11:33;;;;;;;9.98;4.25;;;13.70;99.90;;;;;;5039141;28;20060;-83
2023/03/22 11:14:15;;;;;;;8.40;3.10;;;13.70;99.90;;;;;;5038986;28;20024;-81
2023/03/22 11:16:46;;;;;;;11.88;3.28;;;13.80;99.90;;;;;;5044590;28;20044;-83
2023/03/22 11:19:39;;;;;;;4.95;3.00;;;13.70;99.90;;;;;;5034773;28;20029;-82
2023/03/22 11:22:28;;;;;;;8.93;3.65;;;13.60;99.90;;;;;;5041399;28;20049;-81
2023/03/22 11:24:55;;;;;;;9.27;3.30;;;13.60;99.90;;;;;;5039030;28;20043;-81
2023/03/22 11:27:27;;;;;;;4.72;2.75;;;13.60;99.90;;;;;;5039139;28;20084;-84
2023/03/22 11:29:57;;;;;;;5.25;2.83;;;13.50;99.90;;;;;;5037842;28;20060;-82
2023/03/22 11:32:34;;;;;;;3.72;2.67;;;13.50;99.90;;;;;;5041025;28;20112;-83
2023/03/22 11:35:16;;;;;;;8.88;3.03;;;13.50;99.90;;;;;;5035369;28;20022;-85
2023/03/22 11:37:45;;;;;;;8.02;3.33;;;13.50;99.90;;;;;;5038739;28;20043;-82
2023/03/22 11:40:18;;;;;;;4.88;2.90;;;13.50;99.90;;;;;;5043081;28;20405;-82
2023/03/22 11:42:45;;;;;;;11.77;2.90;;;13.50;99.90;;;;;;5038921;28;20111;-84
2023/03/22 11:45:30;;;;;;;10.05;3.63;;;13.50;99.90;;;;;;5045099;28;20028;-82
2023/03/22 11:48:05;;;;;;;11.32;4.20;;;13.50;99.90;;;;;;5037757;28;20044;-83
2023/03/22 11:50:34;;;;;;;10.52;4.00;;;13.50;99.90;;;;;;5029158;28;20040;-84
2023/03/22 11:53:02;;;;;;;8.10;3.67;;;13.50;99.90;;;;;;5043183;28;20056;-83
2023/03/22 11:55:30;;;;;;;6.05;3.08;;;13.50;99.90;;;;;;5042221;28;20376;-86
2023/03/22 11:57:56;;;;;;;7.93;3.10;;;13.50;99.90;;;;;;5040870;28;20036;-82
2023/03/22 12:00:28;;;;;;;8.63;3.35;;;13.60;99.90;;;;;;5038925;28;20074;-83
2023/03/22 12:03:04;;;;;;;6.72;3.20;;;13.50;99.90;;;;;;5043403;28;20575;-84
2023/03/22 12:05:38;;;;;;;8.32;3.63;;;13.50;99.90;;;;;;5037394;28;20075;-83
2023/03/22 12:08:29;;;;;;;4.93;2.90;;;13.60;99.90;;;;;;5027528;28;20088;-85
2023/03/22 12:11:05;;;;;;;9.57;3.42;;;13.70;99.90;;;;;;5037886;28;20050;-83
2023/03/22 12:13:53;;;;;;;15.68;6.25;;;13.70;99.90;;;;;;5021432;28;20474;-82
2023/03/22 12:16:27;;;;;;;7.90;3.55;;;13.70;99.90;;;;;;5042004;28;20037;-85
2023/03/22 12:19:02;;;;;;;11.00;2.88;;;13.80;99.90;;;;;;5035920;28;20048;-83
2023/03/22 12:21:28;;;;;;;;;;;13.80;99.90;;;;;;5037956;28;21901;-84
2023/03/22 12:24:00;;;;;;;9.52;3.63;;;13.90;99.90;;;;;;5032648;28;20010;-84
2023/03/22 12:26:28;;;;;;;9.18;3.60;;;13.80;99.90;;;;;;5037225;28;20045;-83
2023/03/22 12:29:14;;;;;;;9.23;3.58;;;13.80;99.90;;;;;;5034230;28;20036;-84
2023/03/22 12:31:48;;;;;;;8.85;3.28;;;13.70;99.90;;;;;;5045216;28;20033;-83
2023/03/22 12:34:21;;;;;;;14.13;3.45;;;13.70;99.90;;;;;;5047027;28;20037;-82
2023/03/22 12:36:51;;;;;;;8.00;3.28;;;13.80;99.90;;;;;;5034185;28;20105;-84
2023/03/22 12:39:50;;;;;;;9.70;3.42;;;13.70;99.90;;;;;;5043400;28;20033;-85
2023/03/22 12:42:23;;;;;;;5.93;3.17;;;13.70;99.90;;;;;;5037433;28;20041;-84
2023/03/22 12:44:53;;;;;;;10.20;3.60;;;13.70;99.90;;;;;;5043244;28;20044;-83
2023/03/22 12:47:45;;;;;;;5.82;3.50;;;13.80;99.90;;;;;;5042911;28;20021;-83
2023/03/22 12:50:40;;;;;;;13.40;3.25;;;13.80;99.90;;;;;;5016487;28;20037;-82
2023/03/22 12:53:11;;;;;;;4.97;2.60;;;13.90;99.90;;;;;;5032407;28;20041;-81
2023/03/22 12:55:38;;;;;;;6.65;2.53;;;14.00;99.90;;;;;;5042184;28;20337;-82